createdAt,value
2018-04-12T00:00:10.892Z,9.30
2018-04-12T00:02:40.350Z,9.89
2018-04-12T00:05:09.313Z,9.42
2018-04-12T00:07:38.428Z,9.86
2018-04-12T00:10:07.609Z,9.42
2018-04-12T00:12:37.288Z,9.26
2018-04-12T00:15:06.614Z,9.54
2018-04-12T00:17:35.768Z,9.38
2018-04-12T00:20:05.269Z,9.49
2018-04-12T00:22:34.327Z,9.09
2018-04-12T00:25:03.784Z,9.12
2018-04-12T00:27:33.084Z,9.95
2018-04-12T00:30:02.329Z,9.41
2018-04-12T00:32:31.638Z,9.24
2018-04-12T00:35:00.860Z,9.24
2018-04-12T00:37:30.398Z,9.18
2018-04-12T00:39:59.513Z,9.20
2018-04-12T00:42:28.644Z,9.24
2018-04-12T00:44:57.817Z,9.82
2018-04-12T00:47:27.099Z,10.06
2018-04-12T00:49:56.444Z,9.60
2018-04-12T00:52:25.595Z,9.65
2018-04-12T00:54:54.722Z,9.68
2018-04-12T00:57:23.829Z,9.25
2018-04-12T00:59:53.220Z,8.94
2018-04-12T01:02:22.297Z,9.14
2018-04-12T01:04:51.540Z,9.31
2018-04-12T01:07:20.796Z,9.49
2018-04-12T01:09:49.896Z,9.19
2018-04-12T01:12:18.972Z,9.00
2018-04-12T01:14:48.113Z,8.98
2018-04-12T01:17:17.217Z,8.83
2018-04-12T01:19:46.482Z,8.80
2018-04-12T01:22:15.656Z,8.94
2018-04-12T01:24:44.659Z,9.33
2018-04-12T01:27:13.698Z,9.20
2018-04-12T01:29:42.807Z,8.98
2018-04-12T01:32:12.233Z,9.05
2018-04-12T01:34:41.590Z,8.86
2018-04-12T01:37:10.621Z,8.97
2018-04-12T01:39:39.774Z,8.75
2018-04-12T01:42:08.818Z,8.87
2018-04-12T01:44:38.024Z,8.81
2018-04-12T01:47:07.105Z,9.06
2018-04-12T01:49:36.890Z,9.67
2018-04-12T01:52:06.080Z,9.58
2018-04-12T01:54:35.337Z,9.71
2018-04-12T01:57:04.478Z,9.47
2018-04-12T01:59:33.500Z,9.18
2018-04-12T02:02:02.925Z,9.00
2018-04-12T02:04:32.064Z,8.93
2018-04-12T02:07:01.377Z,9.00
2018-04-12T02:09:30.401Z,8.70
2018-04-12T02:11:59.700Z,8.77
2018-04-12T02:14:28.787Z,8.94
2018-04-12T02:16:58.150Z,8.97
2018-04-12T02:19:27.489Z,9.22
2018-04-12T02:21:56.797Z,9.56
2018-04-12T02:24:26.072Z,9.50
2018-04-12T02:26:55.238Z,9.18
2018-04-12T02:29:24.349Z,9.04
2018-04-12T02:31:53.593Z,9.01
2018-04-12T02:34:22.919Z,9.03
2018-04-12T02:36:52.047Z,9.13
2018-04-12T02:39:21.364Z,9.27
2018-04-12T02:41:50.516Z,10.02
2018-04-12T02:44:19.659Z,9.85
2018-04-12T02:46:48.681Z,9.92
2018-04-12T02:49:17.832Z,9.30
2018-04-12T02:51:47.022Z,8.93
2018-04-12T02:54:16.273Z,8.80
2018-04-12T02:56:45.652Z,8.81
2018-04-12T02:59:14.661Z,9.26
2018-04-12T03:01:43.958Z,9.61
2018-04-12T03:04:13.074Z,9.54
2018-04-12T03:06:42.185Z,9.61
2018-04-12T03:09:11.318Z,9.47
2018-04-12T03:11:40.396Z,9.32
2018-04-12T03:14:09.569Z,9.41
2018-04-12T03:16:38.749Z,8.98
2018-04-12T03:19:07.861Z,8.95
2018-04-12T03:21:37.070Z,8.87
2018-04-12T03:24:06.184Z,8.86
2018-04-12T03:26:35.762Z,8.94
2018-04-12T03:29:05.077Z,8.83
2018-04-12T03:31:34.147Z,9.25
2018-04-12T03:34:03.265Z,9.09
2018-04-12T03:36:32.384Z,9.17
2018-04-12T03:39:01.602Z,8.98
2018-04-12T03:41:30.938Z,9.51
2018-04-12T03:44:00.242Z,9.24
2018-04-12T03:46:29.594Z,9.29
2018-04-12T03:48:59.924Z,9.28
2018-04-12T03:51:29.059Z,8.78
2018-04-12T03:53:58.260Z,8.63
2018-04-12T03:56:27.347Z,8.63
2018-04-12T03:58:56.533Z,8.54
2018-04-12T04:01:25.794Z,8.78
2018-04-12T04:03:54.826Z,8.73
2018-04-12T04:06:23.880Z,8.79
2018-04-12T04:08:53.044Z,9.35
2018-04-12T04:11:22.036Z,9.35
2018-04-12T04:13:51.414Z,9.32
2018-04-12T04:16:31.835Z,9.01
2018-04-12T04:19:12.006Z,9.19
2018-04-12T04:21:41.024Z,9.80
2018-04-12T04:24:10.097Z,9.16
2018-04-12T04:26:39.308Z,9.24
2018-04-12T04:29:08.455Z,9.15
2018-04-12T04:31:37.540Z,9.36
2018-04-12T04:34:06.995Z,9.28
2018-04-12T04:36:36.107Z,9.14
2018-04-12T04:39:05.147Z,9.08
2018-04-12T04:41:34.454Z,8.96
2018-04-12T04:44:03.582Z,9.26
2018-04-12T04:46:32.821Z,8.93
2018-04-12T04:49:02.049Z,9.67
2018-04-12T04:51:31.149Z,9.60
2018-04-12T04:54:00.268Z,9.21
2018-04-12T04:56:29.489Z,9.41
2018-04-12T04:58:58.644Z,9.64
2018-04-12T05:01:27.849Z,9.84
2018-04-12T05:03:57.005Z,9.62
2018-04-12T05:06:26.420Z,9.83
2018-04-12T05:08:55.685Z,9.70
2018-04-12T05:11:25.072Z,9.85
2018-04-12T05:13:54.105Z,9.97
2018-04-12T05:16:23.273Z,9.76
2018-04-12T05:18:52.326Z,9.42
2018-04-12T05:21:21.552Z,9.53
2018-04-12T05:23:50.745Z,10.33
2018-04-12T05:26:19.854Z,10.56
2018-04-12T05:28:48.799Z,10.15
2018-04-12T05:31:17.950Z,9.57
2018-04-12T05:33:47.047Z,9.75
2018-04-12T05:36:17.047Z,9.60
2018-04-12T05:38:46.524Z,10.54
2018-04-12T05:41:15.792Z,10.98
2018-04-12T05:43:44.901Z,10.54
2018-04-12T05:46:14.305Z,10.49
2018-04-12T05:48:43.378Z,10.97
2018-04-12T05:51:12.523Z,10.61
2018-04-12T05:53:41.624Z,10.39
2018-04-12T05:56:10.899Z,10.26
2018-04-12T05:58:40.138Z,10.26
2018-04-12T06:01:09.333Z,10.68
2018-04-12T06:03:38.414Z,10.29
2018-04-12T06:06:07.676Z,10.50
2018-04-12T06:08:36.832Z,9.58
2018-04-12T06:11:05.930Z,9.75
2018-04-12T06:13:35.074Z,9.85
2018-04-12T06:16:04.229Z,9.79
2018-04-12T06:18:33.260Z,10.73
2018-04-12T06:21:02.616Z,9.73
2018-04-12T06:23:43.557Z,10.27
2018-04-12T06:26:18.524Z,10.00
2018-04-12T06:28:48.208Z,9.62
2018-04-12T06:31:17.564Z,10.03
2018-04-12T06:33:46.742Z,9.90
2018-04-12T06:36:15.894Z,10.17
2018-04-12T06:38:45.132Z,11.10
2018-04-12T06:41:14.280Z,10.29
2018-04-12T06:43:43.456Z,11.59
2018-04-12T06:46:12.645Z,11.51
2018-04-12T06:48:41.881Z,11.70
2018-04-12T06:51:11.497Z,10.73
2018-04-12T06:53:40.689Z,10.66
2018-04-12T06:56:09.941Z,11.13
2018-04-12T06:58:39.195Z,11.47
2018-04-12T07:01:10.073Z,11.11
2018-04-12T07:03:41.828Z,10.23
2018-04-12T07:06:12.301Z,9.97
2018-04-12T07:08:41.451Z,10.53
2018-04-12T07:11:10.681Z,11.53
2018-04-12T07:13:39.840Z,11.45
2018-04-12T07:16:10.582Z,10.94
2018-04-12T07:18:40.059Z,12.26
2018-04-12T07:21:09.420Z,11.53
2018-04-12T07:23:38.616Z,11.56
2018-04-12T07:26:07.703Z,10.90
2018-04-12T07:28:37.191Z,11.71
2018-04-12T07:31:06.632Z,11.66
2018-04-12T07:33:35.855Z,12.69
2018-04-12T07:36:04.945Z,11.50
2018-04-12T07:38:34.253Z,11.96
2018-04-12T07:41:03.644Z,10.98
2018-04-12T07:43:32.806Z,11.49
2018-04-12T07:46:02.005Z,12.19
2018-04-12T07:48:31.197Z,11.34
2018-04-12T07:51:00.690Z,12.62
2018-04-12T07:53:30.161Z,13.18
2018-04-12T07:56:10.305Z,12.67
2018-04-12T07:58:45.519Z,11.85
2018-04-12T08:01:14.713Z,12.26
2018-04-12T08:03:43.860Z,12.59
2018-04-12T08:06:13.100Z,12.90
2018-04-12T08:08:42.252Z,12.59
2018-04-12T08:11:11.750Z,12.40
2018-04-12T08:13:41.044Z,12.78
2018-04-12T08:16:10.236Z,11.91
2018-04-12T08:18:39.260Z,11.65
2018-04-12T08:21:08.542Z,12.42
2018-04-12T08:23:37.849Z,12.35
2018-04-12T08:26:07.245Z,12.10
2018-04-12T08:28:36.549Z,12.62
2018-04-12T08:31:06.283Z,11.74
2018-04-12T08:33:35.562Z,12.41
2018-04-12T08:36:04.752Z,12.56
2018-04-12T08:38:33.728Z,12.72
2018-04-12T08:41:02.872Z,12.53
2018-04-12T08:43:31.908Z,11.59
2018-04-12T08:46:00.921Z,12.20
2018-04-12T08:48:30.141Z,12.48
2018-04-12T08:50:59.390Z,11.40
2018-04-12T08:53:28.534Z,12.12
2018-04-12T08:55:57.860Z,12.53
2018-04-12T08:58:27.128Z,12.82
2018-04-12T09:00:56.353Z,12.83
2018-04-12T09:03:25.337Z,12.92
2018-04-12T09:05:54.628Z,12.87
2018-04-12T09:08:23.790Z,12.64
2018-04-12T09:10:52.856Z,12.52
2018-04-12T09:13:21.917Z,12.69
2018-04-12T09:15:51.167Z,12.40
2018-04-12T09:18:20.429Z,13.09
2018-04-12T09:20:49.512Z,13.06
2018-04-12T09:23:18.806Z,12.80
2018-04-12T09:25:48.089Z,13.18
2018-04-12T09:28:17.127Z,13.31
2018-04-12T09:30:46.365Z,13.23
2018-04-12T09:33:15.882Z,12.30
2018-04-12T09:35:45.783Z,13.34
2018-04-12T09:38:14.930Z,12.88
2018-04-12T09:40:44.047Z,12.92
2018-04-12T09:43:13.331Z,13.42
2018-04-12T09:45:42.848Z,13.46
2018-04-12T09:48:12.001Z,13.28
2018-04-12T09:50:41.324Z,13.58
2018-04-12T09:53:10.364Z,14.10
2018-04-12T09:55:39.457Z,13.45
2018-04-12T09:58:08.880Z,13.14
2018-04-12T10:00:38.314Z,13.71
2018-04-12T10:03:13.193Z,14.01
2018-04-12T10:05:48.056Z,14.19
2018-04-12T10:08:22.946Z,13.85
2018-04-12T10:10:52.156Z,14.11
2018-04-12T10:13:21.520Z,14.20
2018-04-12T10:15:50.677Z,14.04
2018-04-12T10:18:19.826Z,13.92
2018-04-12T10:20:48.991Z,14.37
2018-04-12T10:23:18.114Z,14.42
2018-04-12T10:25:47.492Z,13.76
2018-04-12T10:28:16.715Z,13.21
2018-04-12T10:30:45.897Z,13.15
2018-04-12T10:33:15.065Z,12.50
2018-04-12T10:35:44.161Z,13.07
2018-04-12T10:38:13.504Z,13.20
2018-04-12T10:40:42.713Z,13.28
2018-04-12T10:43:12.580Z,13.40
2018-04-12T10:45:41.837Z,13.18
2018-04-12T10:48:11.144Z,13.76
2018-04-12T10:50:40.537Z,13.60
2018-04-12T10:53:09.799Z,13.28
2018-04-12T10:55:39.108Z,13.39
2018-04-12T10:58:08.327Z,13.35
2018-04-12T11:00:37.496Z,14.07
2018-04-12T11:03:06.664Z,14.34
2018-04-12T11:05:35.769Z,13.98
2018-04-12T11:08:04.840Z,14.23
2018-04-12T11:10:34.131Z,13.85
2018-04-12T11:13:03.260Z,12.91
2018-04-12T11:15:32.380Z,13.27
2018-04-12T11:18:01.784Z,13.47
2018-04-12T11:20:32.040Z,13.62
2018-04-12T11:23:01.726Z,13.50
2018-04-12T11:25:31.020Z,12.91
2018-04-12T11:28:00.112Z,12.47
2018-04-12T11:30:29.220Z,12.55
2018-04-12T11:32:58.455Z,12.61
2018-04-12T11:35:27.634Z,12.99
2018-04-12T11:37:56.834Z,12.55
2018-04-12T11:40:25.923Z,12.90
2018-04-12T11:42:55.249Z,13.09
2018-04-12T11:45:24.500Z,12.79
2018-04-12T11:47:53.572Z,12.62
2018-04-12T11:50:22.785Z,12.34
2018-04-12T11:52:52.112Z,12.30
2018-04-12T11:55:21.283Z,12.04
2018-04-12T11:57:50.527Z,12.79
2018-04-12T12:00:19.892Z,12.66
2018-04-12T12:02:49.148Z,12.44
2018-04-12T12:05:18.526Z,12.64
2018-04-12T12:07:47.540Z,13.53
2018-04-12T12:10:17.133Z,13.07
2018-04-12T12:12:46.412Z,13.25
2018-04-12T12:15:15.685Z,13.12
2018-04-12T12:17:45.262Z,12.96
2018-04-12T12:20:15.197Z,12.92
2018-04-12T12:22:44.553Z,12.82
2018-04-12T12:25:13.734Z,12.81
2018-04-12T12:27:42.895Z,12.69
2018-04-12T12:30:12.356Z,12.99
2018-04-12T12:32:41.353Z,12.16
2018-04-12T12:35:10.510Z,12.15
2018-04-12T12:37:39.749Z,12.57
2018-04-12T12:40:08.857Z,12.80
2018-04-12T12:42:38.142Z,12.80
2018-04-12T12:45:07.397Z,12.92
2018-04-12T12:47:36.717Z,12.89
2018-04-12T12:50:06.239Z,13.23
2018-04-12T12:52:35.319Z,13.37
2018-04-12T12:55:04.533Z,13.43
2018-04-12T12:57:33.687Z,13.22
2018-04-12T13:00:02.941Z,13.12
2018-04-12T13:02:32.396Z,13.10
2018-04-12T13:05:01.798Z,13.17
2018-04-12T13:07:30.924Z,13.50
2018-04-12T13:10:00.292Z,13.42
2018-04-12T13:12:29.600Z,13.23
2018-04-12T13:14:59.314Z,13.19
2018-04-12T13:17:28.422Z,13.54
2018-04-12T13:19:57.632Z,13.95
2018-04-12T13:22:26.700Z,13.59
2018-04-12T13:24:55.861Z,13.77
2018-04-12T13:27:25.151Z,13.24
2018-04-12T13:29:54.192Z,12.70
2018-04-12T13:32:23.216Z,12.79
2018-04-12T13:34:52.386Z,13.72
2018-04-12T13:37:21.516Z,13.22
2018-04-12T13:39:50.797Z,13.15
2018-04-12T13:42:20.045Z,13.38
2018-04-12T13:44:49.185Z,13.20
2018-04-12T13:47:18.540Z,13.43
2018-04-12T13:49:47.912Z,12.75
2018-04-12T13:52:17.396Z,12.70
2018-04-12T13:54:46.350Z,13.50
2018-04-12T13:57:15.897Z,13.41
2018-04-12T13:59:45.251Z,13.05
2018-04-12T14:02:14.437Z,13.05
2018-04-12T14:04:43.682Z,12.88
2018-04-12T14:07:12.757Z,12.65
2018-04-12T14:09:41.883Z,12.56
2018-04-12T14:12:10.929Z,12.74
2018-04-12T14:14:40.031Z,12.43
2018-04-12T14:17:09.331Z,12.25
2018-04-12T14:19:38.426Z,11.82
2018-04-12T14:22:07.619Z,11.97
2018-04-12T14:24:36.925Z,12.47
2018-04-12T14:27:06.164Z,11.90
2018-04-12T14:29:35.426Z,11.40
2018-04-12T14:32:04.624Z,11.34
2018-04-12T14:34:33.772Z,11.41
2018-04-12T14:37:03.136Z,11.21
2018-04-12T14:39:32.417Z,11.20
2018-04-12T14:42:01.537Z,11.37
2018-04-12T14:44:30.823Z,11.39
2018-04-12T14:47:00.020Z,11.22
2018-04-12T14:49:29.525Z,11.22
2018-04-12T14:51:58.769Z,10.90
2018-04-12T14:54:27.830Z,10.81
2018-04-12T14:56:56.870Z,11.00
2018-04-12T14:59:26.018Z,11.10
2018-04-12T15:01:55.311Z,11.18
2018-04-12T15:04:24.344Z,11.10
2018-04-12T15:06:53.605Z,11.02
2018-04-12T15:09:22.653Z,10.80
2018-04-12T15:11:51.820Z,10.70
2018-04-12T15:14:20.967Z,10.88
2018-04-12T15:16:49.996Z,10.87
2018-04-12T15:19:18.876Z,10.81
2018-04-12T15:21:48.072Z,10.80
2018-04-12T15:24:17.118Z,10.69
2018-04-12T15:26:45.999Z,10.71
2018-04-12T15:29:15.265Z,10.62
2018-04-12T15:31:44.300Z,10.78
2018-04-12T15:34:13.384Z,10.66
2018-04-12T15:36:42.696Z,10.51
2018-04-12T15:39:11.815Z,10.81
2018-04-12T15:41:40.762Z,10.92
2018-04-12T15:44:09.904Z,10.68
2018-04-12T15:46:38.801Z,10.62
2018-04-12T15:49:08.028Z,10.78
2018-04-12T15:51:37.166Z,10.63
2018-04-12T15:54:06.323Z,10.74
2018-04-12T15:56:35.200Z,10.59
2018-04-12T15:59:04.488Z,10.74
2018-04-12T16:01:33.384Z,10.63
2018-04-12T16:04:02.442Z,10.62
2018-04-12T16:06:31.591Z,10.75
2018-04-12T16:09:00.521Z,10.74
2018-04-12T16:11:29.466Z,10.70
2018-04-12T16:13:58.336Z,10.62
2018-04-12T16:16:27.180Z,10.54
2018-04-12T16:18:56.085Z,10.62
2018-04-12T16:21:25.078Z,10.59
2018-04-12T16:23:54.324Z,10.54
2018-04-12T16:26:23.393Z,10.41
2018-04-12T16:28:52.285Z,10.49
2018-04-12T16:31:21.606Z,10.57
2018-04-12T16:33:50.481Z,10.72
2018-04-12T16:36:19.284Z,10.67
2018-04-12T16:38:48.359Z,10.55
2018-04-12T16:41:17.352Z,10.57
2018-04-12T16:43:46.148Z,10.45
2018-04-12T16:46:15.033Z,10.53
2018-04-12T16:48:44.288Z,10.59
2018-04-12T16:51:13.684Z,10.60
2018-04-12T16:53:42.493Z,10.46
2018-04-12T16:56:11.837Z,10.57
2018-04-12T16:58:40.734Z,10.59
2018-04-12T17:01:09.659Z,10.43
2018-04-12T17:03:38.679Z,10.51
2018-04-12T17:06:07.802Z,10.34
2018-04-12T17:08:36.765Z,10.65
2018-04-12T17:11:05.769Z,10.75
2018-04-12T17:13:34.604Z,10.80
2018-04-12T17:16:03.906Z,10.91
2018-04-12T17:18:32.942Z,10.82
2018-04-12T17:21:01.893Z,10.77
2018-04-12T17:23:30.826Z,10.50
2018-04-12T17:25:59.836Z,10.71
2018-04-12T17:28:28.776Z,10.73
2018-04-12T17:30:57.789Z,10.74
2018-04-12T17:33:26.590Z,10.65
2018-04-12T17:35:55.425Z,10.88
2018-04-12T17:38:24.462Z,10.76
2018-04-12T17:40:53.529Z,10.60
2018-04-12T17:43:22.456Z,10.38
2018-04-12T17:45:51.516Z,10.69
2018-04-12T17:48:20.385Z,10.66
2018-04-12T17:50:49.272Z,10.80
2018-04-12T17:53:18.130Z,10.83
2018-04-12T17:55:47.085Z,10.89
2018-04-12T17:58:16.012Z,10.80
2018-04-12T18:00:44.914Z,10.91
2018-04-12T18:03:13.841Z,10.93
2018-04-12T18:05:42.750Z,10.72
2018-04-12T18:08:11.772Z,10.52
2018-04-12T18:10:40.647Z,10.34
2018-04-12T18:13:10.082Z,10.37
2018-04-12T18:15:39.209Z,10.53
2018-04-12T18:18:08.065Z,10.63
2018-04-12T18:20:37.453Z,10.60
2018-04-12T18:23:06.384Z,10.39
2018-04-12T18:25:35.310Z,10.29
2018-04-12T18:28:04.197Z,10.59
2018-04-12T18:30:33.336Z,10.61
2018-04-12T18:33:02.390Z,10.65
2018-04-12T18:35:31.279Z,10.45
2018-04-12T18:38:00.119Z,10.41
2018-04-12T18:40:28.947Z,10.44
2018-04-12T18:42:57.798Z,10.39
2018-04-12T18:45:26.764Z,10.47
2018-04-12T18:47:55.700Z,10.43
2018-04-12T18:50:24.666Z,10.36
2018-04-12T18:52:53.729Z,10.52
2018-04-12T18:55:22.550Z,10.58
2018-04-12T18:57:51.645Z,10.50
2018-04-12T19:00:20.625Z,10.56
2018-04-12T19:02:49.406Z,10.48
2018-04-12T19:05:18.210Z,10.59
2018-04-12T19:07:47.181Z,10.64
2018-04-12T19:10:16.030Z,10.20
2018-04-12T19:12:44.936Z,10.13
2018-04-12T19:15:13.775Z,10.07
2018-04-12T19:17:42.880Z,10.27
2018-04-12T19:20:11.906Z,10.15
2018-04-12T19:22:41.063Z,10.17
2018-04-12T19:25:09.825Z,10.04
2018-04-12T19:27:38.688Z,10.16
2018-04-12T19:30:07.637Z,10.33
2018-04-12T19:32:36.503Z,10.37
2018-04-12T19:35:05.490Z,10.39
2018-04-12T19:37:34.336Z,10.49
2018-04-12T19:40:03.269Z,10.81
2018-04-12T19:42:36.288Z,10.84
2018-04-12T19:45:05.264Z,10.38
2018-04-12T19:47:34.118Z,10.53
2018-04-12T19:50:03.297Z,10.55
2018-04-12T19:52:32.584Z,10.16
2018-04-12T19:55:01.945Z,10.42
2018-04-12T19:57:30.754Z,10.22
2018-04-12T19:59:59.665Z,10.19
2018-04-12T20:02:28.810Z,10.40
2018-04-12T20:04:57.713Z,10.51
2018-04-12T20:07:26.722Z,10.24
2018-04-12T20:09:55.627Z,10.26
2018-04-12T20:12:24.575Z,10.48
2018-04-12T20:14:53.581Z,10.28
2018-04-12T20:17:22.409Z,10.47
2018-04-12T20:19:51.565Z,10.52
2018-04-12T20:22:20.393Z,10.58
2018-04-12T20:24:49.428Z,10.71
2018-04-12T20:27:18.401Z,10.52
2018-04-12T20:29:47.317Z,10.54
2018-04-12T20:32:16.265Z,10.09
2018-04-12T20:34:45.219Z,9.98
2018-04-12T20:37:14.461Z,10.05
2018-04-12T20:39:43.554Z,10.34
2018-04-12T20:42:12.740Z,10.06
2018-04-12T20:44:42.004Z,10.51
2018-04-12T20:47:10.903Z,10.24
2018-04-12T20:49:39.717Z,10.20
2018-04-12T20:52:08.486Z,10.35
2018-04-12T20:54:37.418Z,9.97
2018-04-12T20:57:06.276Z,10.09
2018-04-12T20:59:35.064Z,10.10
2018-04-12T21:02:03.883Z,10.00
2018-04-12T21:04:32.747Z,9.97
2018-04-12T21:07:01.861Z,10.24
2018-04-12T21:09:30.807Z,10.17
2018-04-12T21:12:01.516Z,10.72
2018-04-12T21:14:30.702Z,10.65
2018-04-12T21:16:59.479Z,10.26
2018-04-12T21:19:28.387Z,10.12
2018-04-12T21:21:57.260Z,10.11
2018-04-12T21:24:26.196Z,10.55
2018-04-12T21:26:55.120Z,10.94
2018-04-12T21:29:24.009Z,10.61
2018-04-12T21:31:52.873Z,11.02
2018-04-12T21:34:21.845Z,10.82
2018-04-12T21:36:51.037Z,11.00
2018-04-12T21:39:20.184Z,10.84
2018-04-12T21:41:49.066Z,10.39
2018-04-12T21:44:17.865Z,10.68
2018-04-12T21:46:46.690Z,10.85
2018-04-12T21:49:15.467Z,11.05
2018-04-12T21:51:44.547Z,10.75
2018-04-12T21:54:13.466Z,10.74
2018-04-12T21:56:42.372Z,10.88
2018-04-12T21:59:11.236Z,10.74
2018-04-12T22:01:40.149Z,10.52
2018-04-12T22:04:09.312Z,11.03
2018-04-12T22:06:38.324Z,10.55
2018-04-12T22:09:07.376Z,10.34
2018-04-12T22:11:36.443Z,10.25
2018-04-12T22:14:05.461Z,10.59
2018-04-12T22:16:34.565Z,10.88
2018-04-12T22:19:03.537Z,11.00
2018-04-12T22:21:32.466Z,10.73
2018-04-12T22:24:01.594Z,10.33
2018-04-12T22:26:30.695Z,10.76
2018-04-12T22:28:59.832Z,10.64
2018-04-12T22:31:28.763Z,10.32
2018-04-12T22:33:57.770Z,10.17
2018-04-12T22:36:27.166Z,10.24
2018-04-12T22:38:56.112Z,10.13
2018-04-12T22:41:25.054Z,10.42
2018-04-12T22:43:53.903Z,10.31
2018-04-12T22:46:22.876Z,10.16
2018-04-12T22:48:52.073Z,10.69
2018-04-12T22:51:21.025Z,10.91
2018-04-12T22:53:50.491Z,10.57
2018-04-12T22:56:19.650Z,10.71
2018-04-12T22:58:48.722Z,10.91
2018-04-12T23:01:19.982Z,10.89
2018-04-12T23:03:49.127Z,11.32
2018-04-12T23:06:18.267Z,11.21
2018-04-12T23:08:47.580Z,11.00
2018-04-12T23:11:17.097Z,11.00
2018-04-12T23:13:46.306Z,11.12
2018-04-12T23:16:15.414Z,10.53
2018-04-12T23:18:45.561Z,10.52
2018-04-12T23:21:14.814Z,10.42
2018-04-12T23:23:44.209Z,10.25
2018-04-12T23:26:13.463Z,10.37
2018-04-12T23:28:42.598Z,9.96
2018-04-12T23:31:11.902Z,10.55
2018-04-12T23:33:41.240Z,10.42
2018-04-12T23:36:10.242Z,10.62
2018-04-12T23:38:39.593Z,10.69
2018-04-12T23:41:08.791Z,10.17
2018-04-12T23:43:37.932Z,10.47
2018-04-12T23:46:07.370Z,10.34
2018-04-12T23:48:36.525Z,10.60
2018-04-12T23:51:05.735Z,10.46
2018-04-12T23:53:34.917Z,10.38
2018-04-12T23:56:04.364Z,10.30
2018-04-12T23:58:33.637Z,10.07
